Time;durP1;ratioP1;P1;durP2;ratioP2;P2;SDS_P1;SDS_P2;PMS_P1;PMS_P2;Temp;Humidity;BMP_temperature;BMP_pressure;BME280_temperature;BME280_humidity;BME280_pressure;Samples;Min_cycle;Max_cycle;Signal;HPM_P1;HPM_P2
2021/08/03 00:01:21;;;;;;;1999.90;999.90;;;;;;;21.15;96.41;95572.38;5015763;28;20587;-67
2021/08/03 00:03:57;;;;;;;1999.90;999.90;;;;;;;20.89;97.73;95567.84;5020200;28;20212;-68
2021/08/03 00:06:30;;;;;;;1999.90;999.90;;;;;;;20.78;98.30;95566.91;5013516;28;20189;-67
2021/08/03 00:08:59;;;;;;;1999.90;999.90;;;;;;;20.75;99.19;95559.72;5026423;28;20696;-68
2021/08/03 00:11:27;;;;;;;1999.90;999.90;;;;;;;20.76;99.03;95562.00;5026382;28;20210;-68
2021/08/03 00:13:55;;;;;;;1999.90;999.90;;;;;;;20.81;98.46;95564.34;5026671;28;20209;-68
2021/08/03 00:16:23;;;;;;;1999.90;999.90;;;;;;;20.85;98.20;95567.81;5026567;28;20217;-68
2021/08/03 00:18:51;;;;;;;1999.90;999.90;;;;;;;20.89;98.24;95570.47;5025263;28;20251;-70
2021/08/03 00:21:19;;;;;;;1999.90;999.90;;;;;;;20.85;97.89;95574.97;5026545;28;20201;-69
2021/08/03 00:23:48;;;;;;;1999.90;999.90;;;;;;;20.85;97.53;95577.59;5026464;28;20259;-69
2021/08/03 00:26:16;;;;;;;1999.90;999.90;;;;;;;20.78;97.53;95586.19;5026290;28;20201;-69
2021/08/03 00:28:47;;;;;;;1999.90;999.90;;;;;;;20.83;97.25;95580.59;5026269;28;20245;-69
2021/08/03 00:31:17;;;;;;;1999.90;999.90;;;;;;;20.89;96.92;95581.06;5026187;28;20655;-68
2021/08/03 00:33:45;;;;;;;1999.90;999.90;;;;;;;20.93;96.11;95574.69;5026471;28;20201;-68
2021/08/03 00:36:13;;;;;;;1999.90;999.90;;;;;;;20.86;96.45;95579.91;5026377;28;20246;-68
2021/08/03 00:38:40;;;;;;;1999.90;999.90;;;;;;;20.80;96.56;95576.03;5026416;28;20200;-68
2021/08/03 00:41:15;;;;;;;1999.90;999.90;;;;;;;20.76;96.80;95571.81;5025946;28;20274;-68
2021/08/03 00:43:42;;;;;;;1999.90;999.90;;;;;;;20.69;97.28;95579.63;5026347;28;20197;-68
2021/08/03 00:46:10;;;;;;;1999.90;999.90;;;;;;;20.67;97.57;95579.25;5026106;28;20201;-68
2021/08/03 00:48:37;;;;;;;1999.90;999.90;;;;;;;20.69;97.39;95563.78;5026118;28;20230;-68
2021/08/03 00:51:04;;;;;;;1999.90;999.90;;;;;;;20.64;97.25;95567.50;5026130;28;20202;-65
2021/08/03 00:53:31;;;;;;;1999.90;999.90;;;;;;;20.55;97.55;95580.94;5026258;28;20222;-68
2021/08/03 00:56:01;;;;;;;1999.90;999.90;;;;;;;20.59;97.42;95584.41;5025958;28;20209;-68
2021/08/03 00:58:30;;;;;;;1999.90;999.90;;;;;;;20.65;96.93;95589.38;5025734;28;20222;-68
2021/08/03 01:00:57;;;;;;;1999.90;999.90;;;;;;;20.51;97.36;95580.13;5025643;28;20284;-67
2021/08/03 01:03:24;;;;;;;1999.90;999.90;;;;;;;20.52;97.36;95581.63;5026148;28;20236;-68
2021/08/03 01:06:01;;;;;;;1999.90;999.90;;;;;;;20.52;97.07;95581.63;5025710;28;20194;-69
2021/08/03 01:08:38;;;;;;;1999.90;999.90;;;;;;;20.48;97.61;95580.06;5025793;28;20190;-68
2021/08/03 01:11:11;;;;;;;1999.90;999.90;;;;;;;20.43;97.73;95570.56;5025813;28;20562;-68
2021/08/03 01:13:49;;;;;;;1999.90;999.90;;;;;;;20.44;97.95;95577.38;5026088;28;20265;-67
2021/08/03 01:16:28;;;;;;;1999.90;999.90;;;;;;;20.35;97.85;95586.66;5025627;28;20201;-67
2021/08/03 01:19:06;;;;;;;1999.90;999.90;;;;;;;20.28;97.91;95592.53;5025870;28;20632;-67
2021/08/03 01:21:48;;;;;;;1999.90;999.90;;;;;;;20.27;97.88;95600.84;5025564;28;20242;-68
2021/08/03 01:24:32;;;;;;;1999.90;999.90;;;;;;;20.17;98.48;95602.91;5026136;28;20201;-68
2021/08/03 01:27:26;;;;;;;1999.90;999.90;;;;;;;20.13;98.99;95601.34;5025485;28;20194;-68
2021/08/03 01:29:57;;;;;;;1999.90;999.90;;;;;;;20.17;99.25;95616.13;5025948;28;20210;-69
2021/08/03 01:32:28;;;;;;;1999.90;999.90;;;;;;;20.13;99.57;95606.63;5029243;28;20268;-68
2021/08/03 01:34:56;;;;;;;1999.90;999.90;;;;;;;20.15;99.82;95607.03;5028890;28;20194;-68
2021/08/03 01:37:25;;;;;;;1999.90;999.90;;;;;;;20.20;99.21;95607.50;5028783;28;20666;-66
2021/08/03 01:39:56;;;;;;;1999.90;999.90;;;;;;;20.13;99.79;95602.09;5028784;28;20558;-67
2021/08/03 01:42:25;;;;;;;1999.90;999.90;;;;;;;20.10;99.56;95607.31;5029059;28;20229;-68
2021/08/03 01:44:55;;;;;;;1999.90;999.90;;;;;;;20.07;99.92;95598.25;5028789;28;20197;-67
2021/08/03 01:47:25;;;;;;;1999.90;999.90;;;;;;;20.12;100.00;95590.00;5019253;28;20275;-66
2021/08/03 01:49:54;;;;;;;1999.90;999.90;;;;;;;20.07;100.00;95587.69;5009117;28;20237;-68
2021/08/03 01:52:22;;;;;;;1999.90;999.90;;;;;;;20.01;100.00;95588.31;5009004;28;20667;-67
2021/08/03 01:54:49;;;;;;;1999.90;999.90;;;;;;;20.06;100.00;95588.81;5009194;28;20203;-67
2021/08/03 01:57:18;;;;;;;1999.90;999.90;;;;;;;20.00;100.00;95581.53;5008658;28;20199;-67
2021/08/03 01:59:46;;;;;;;1999.90;999.90;;;;;;;20.03;100.00;95583.44;5013514;28;20194;-69
2021/08/03 02:02:17;;;;;;;1999.90;999.90;;;;;;;20.04;100.00;95574.44;5022492;28;20206;-68
2021/08/03 02:04:48;;;;;;;1999.90;999.90;;;;;;;19.99;100.00;95574.72;5025381;28;20194;-68
2021/08/03 02:07:16;;;;;;;1999.90;999.90;;;;;;;19.96;100.00;95572.78;5026304;28;20186;-68
2021/08/03 02:09:45;;;;;;;1999.90;999.90;;;;;;;19.92;100.00;95575.38;5026346;28;20229;-69
2021/08/03 02:12:12;;;;;;;1999.90;999.90;;;;;;;20.01;99.55;95583.06;5007773;28;20215;-69
2021/08/03 02:14:46;;;;;;;1999.90;999.90;;;;;;;19.96;99.48;95580.69;5008097;28;20222;-69
2021/08/03 02:17:19;;;;;;;1999.90;999.90;;;;;;;19.90;99.43;95582.09;5008497;28;20230;-67
2021/08/03 02:19:47;;;;;;;1999.90;999.90;;;;;;;19.87;99.31;95596.00;5008268;28;20236;-67
2021/08/03 02:22:15;;;;;;;1999.90;999.90;;;;;;;19.81;99.74;95602.66;5008069;28;20199;-69
2021/08/03 02:24:43;;;;;;;1999.90;999.90;;;;;;;19.62;100.00;95601.56;5008180;28;20199;-69
2021/08/03 02:27:10;;;;;;;1999.90;999.90;;;;;;;19.61;100.00;95604.56;5007988;28;20624;-69
2021/08/03 02:29:39;;;;;;;1999.90;999.90;;;;;;;19.45;100.00;95612.53;5007798;28;20264;-67
2021/08/03 02:32:13;;;;;;;1999.90;999.90;;;;;;;19.45;100.00;95609.13;5007898;28;21002;-67
2021/08/03 02:34:47;;;;;;;1999.90;999.90;;;;;;;19.39;100.00;95615.75;5008059;28;20315;-68
2021/08/03 02:37:18;;;;;;;1999.90;999.90;;;;;;;19.26;100.00;95625.66;5010559;28;20194;-68
2021/08/03 02:39:47;;;;;;;1999.90;999.90;;;;;;;19.15;100.00;95622.81;5023958;28;20638;-67
2021/08/03 02:42:16;;;;;;;1999.90;999.90;;;;;;;19.25;100.00;95626.75;5013507;28;20738;-68
2021/08/03 02:44:46;;;;;;;1999.90;999.90;;;;;;;19.18;100.00;95626.59;5007878;28;20255;-68
2021/08/03 02:47:19;;;;;;;1999.90;999.90;;;;;;;19.14;100.00;95628.41;5017756;28;20197;-68
2021/08/03 02:49:52;;;;;;;1999.90;999.90;;;;;;;19.18;100.00;95626.59;5021483;28;20210;-67
2021/08/03 02:52:23;;;;;;;1999.90;999.90;;;;;;;19.23;100.00;95632.38;5027210;28;20198;-67
2021/08/03 02:54:57;;;;;;;1999.90;999.90;;;;;;;19.11;100.00;95647.53;5027410;28;20250;-68
2021/08/03 02:57:25;;;;;;;1999.90;999.90;;;;;;;19.09;100.00;95633.94;5027082;28;20250;-68
2021/08/03 02:59:55;;;;;;;1999.90;999.90;;;;;;;19.09;100.00;95647.09;5026605;28;20201;-68
2021/08/03 03:02:23;;;;;;;1999.90;999.90;;;;;;;19.07;100.00;95641.44;5026272;28;20206;-67
2021/08/03 03:04:57;;;;;;;1999.90;999.90;;;;;;;19.00;100.00;95636.78;5015438;28;20203;-67
2021/08/03 03:07:30;;;;;;;1999.90;999.90;;;;;;;18.96;100.00;95643.06;5007459;28;20296;-68
2021/08/03 03:09:59;;;;;;;1999.90;999.90;;;;;;;18.86;100.00;95647.75;5007343;28;20216;-68
2021/08/03 03:12:29;;;;;;;1999.90;999.90;;;;;;;18.83;100.00;95648.41;5007168;28;20745;-67
2021/08/03 03:15:00;;;;;;;1999.90;999.90;;;;;;;18.84;100.00;95644.69;5007574;28;20565;-66
2021/08/03 03:17:31;;;;;;;1999.90;999.90;;;;;;;18.77;100.00;95649.81;5007173;28;20193;-67
2021/08/03 03:20:00;;;;;;;1999.90;999.90;;;;;;;18.84;100.00;95649.97;5021833;28;20201;-68
2021/08/03 03:22:29;;;;;;;1999.90;999.90;;;;;;;18.78;100.00;95653.22;5028013;28;20671;-65
2021/08/03 03:24:58;;;;;;;1999.90;999.90;;;;;;;18.82;100.00;95660.09;5026731;28;20616;-65
2021/08/03 03:27:27;;;;;;;1999.90;999.90;;;;;;;18.82;100.00;95670.63;5026998;28;20392;-64
2021/08/03 03:29:56;;;;;;;1999.90;999.90;;;;;;;18.81;100.00;95676.22;5026769;28;20231;-65
2021/08/03 03:32:24;;;;;;;1999.90;999.90;;;;;;;18.88;100.00;95671.88;5027275;28;20202;-65
2021/08/03 03:34:52;;;;;;;1999.90;999.90;;;;;;;18.98;100.00;95677.75;5027035;28;20198;-67
2021/08/03 03:37:20;;;;;;;1999.90;999.90;;;;;;;19.02;100.00;95675.94;5024660;28;20630;-63
2021/08/03 03:39:49;;;;;;;1999.90;999.90;;;;;;;19.11;100.00;95671.25;5022090;28;20206;-67
2021/08/03 03:42:18;;;;;;;1999.90;999.90;;;;;;;19.30;100.00;95677.34;5024044;28;20225;-64
2021/08/03 03:44:45;;;;;;;1999.90;999.90;;;;;;;19.29;100.00;95690.84;5025712;28;20305;-66
2021/08/03 03:47:18;;;;;;;1999.90;999.90;;;;;;;19.30;100.00;95695.00;5020983;28;20206;-65
2021/08/03 03:49:49;;;;;;;1999.90;999.90;;;;;;;19.25;100.00;95693.41;5026219;28;20209;-64
2021/08/03 03:52:20;;;;;;;1999.90;999.90;;;;;;;19.51;100.00;95698.16;5025443;28;20233;-63
2021/08/03 03:54:52;;;;;;;1999.90;999.90;;;;;;;19.48;100.00;95693.53;5012742;28;20263;-67
2021/08/03 03:57:21;;;;;;;1999.90;999.90;;;;;;;19.44;100.00;95703.25;5026233;28;20220;-66
2021/08/03 03:59:50;;;;;;;1999.90;999.90;;;;;;;19.43;100.00;95700.94;5026365;28;20201;-66
2021/08/03 04:02:21;;;;;;;1999.90;999.90;;;;;;;19.44;100.00;95700.63;5025640;28;20221;-66
2021/08/03 04:04:51;;;;;;;1999.90;999.90;;;;;;;19.54;100.00;95710.63;5026517;28;20609;-68
2021/08/03 04:07:18;;;;;;;1999.90;999.90;;;;;;;19.59;100.00;95707.72;5026467;28;20281;-66
2021/08/03 04:09:45;;;;;;;1999.90;999.90;;;;;;;19.72;100.00;95716.28;5025028;28;20222;-67
2021/08/03 04:12:14;;;;;;;1999.90;999.90;;;;;;;19.88;100.00;95706.41;5023346;28;20304;-67
2021/08/03 04:14:44;;;;;;;1999.90;999.90;;;;;;;19.96;100.00;95717.88;5024009;28;20206;-67
2021/08/03 04:17:11;;;;;;;1999.90;999.90;;;;;;;20.01;100.00;95717.59;5024544;28;20243;-68
2021/08/03 04:19:38;;;;;;;1999.90;999.90;;;;;;;20.17;99.60;95724.31;5024615;28;20228;-66
2021/08/03 04:22:05;;;;;;;1999.90;999.90;;;;;;;20.36;99.00;95715.66;5024917;28;20193;-66
2021/08/03 04:24:33;;;;;;;1999.90;999.90;;;;;;;20.56;96.75;95716.38;5024841;28;20210;-67
2021/08/03 04:27:00;;;;;;;1999.90;999.90;;;;;;;20.74;96.01;95711.41;5026258;28;20596;-67
2021/08/03 04:29:28;;;;;;;1999.90;999.90;;;;;;;20.85;95.71;95710.47;5026472;28;20202;-67
2021/08/03 04:31:55;;;;;;;1999.90;999.90;;;;;;;21.02;94.80;95711.88;5026265;28;20677;-67
2021/08/03 04:34:22;;;;;;;1999.90;999.90;;;;;;;21.30;94.00;95714.94;5026516;28;20241;-66
2021/08/03 04:36:50;;;;;;;1999.90;999.90;;;;;;;21.69;94.08;95720.00;5026002;28;20198;-66
2021/08/03 04:39:17;;;;;;;1999.90;999.90;;;;;;;22.04;91.25;95730.28;5026260;28;20202;-69
2021/08/03 04:41:44;;;;;;;1999.90;999.90;;;;;;;22.36;89.00;95730.66;5024618;28;20220;-67
2021/08/03 04:44:11;;;;;;;1999.90;999.90;;;;;;;22.69;86.16;95733.25;5006503;28;20213;-67
2021/08/03 04:46:41;;;;;;;1999.90;999.90;;;;;;;22.87;85.65;95738.72;5006374;28;20202;-68
2021/08/03 04:49:08;;;;;;;1999.90;999.90;;;;;;;22.77;86.59;95737.50;5006391;28;20628;-67
2021/08/03 04:51:35;;;;;;;1999.90;999.90;;;;;;;22.78;86.29;95736.38;5006136;28;20230;-67
2021/08/03 04:54:03;;;;;;;1999.90;999.90;;;;;;;23.02;86.22;95732.41;5006436;28;20205;-68
2021/08/03 04:56:30;;;;;;;1999.90;999.90;;;;;;;23.04;83.63;95733.59;5006475;28;20213;-67
2021/08/03 04:58:57;;;;;;;1999.90;999.90;;;;;;;23.04;83.97;95728.28;5017157;28;20241;-67
2021/08/03 05:01:24;;;;;;;1999.90;999.90;;;;;;;22.86;85.36;95732.69;5025905;28;20351;-66
2021/08/03 05:03:53;;;;;;;1999.90;999.90;;;;;;;22.97;85.85;95732.75;5025308;28;20202;-67
2021/08/03 05:06:20;;;;;;;1999.90;999.90;;;;;;;23.02;85.07;95732.41;5027677;28;20202;-67
2021/08/03 05:08:47;;;;;;;1999.90;999.90;;;;;;;22.94;85.20;95733.50;5029228;28;20673;-67
2021/08/03 05:11:14;;;;;;;1999.90;999.90;;;;;;;23.05;85.69;95729.06;5029375;28;20720;-67
2021/08/03 05:13:41;;;;;;;1999.90;999.90;;;;;;;23.13;85.81;95741.22;5029579;28;20212;-67
2021/08/03 05:16:08;;;;;;;1999.90;999.90;;;;;;;23.31;84.96;95733.41;5029302;28;20216;-67
2021/08/03 05:18:36;;;;;;;1999.90;999.90;;;;;;;23.44;83.90;95734.63;5029176;28;20283;-67
2021/08/03 05:21:04;;;;;;;1999.90;999.90;;;;;;;23.47;83.44;95747.16;5029394;28;20201;-67
2021/08/03 05:23:31;;;;;;;1999.90;999.90;;;;;;;23.16;85.01;95743.16;5029466;28;20251;-67
2021/08/03 05:25:59;;;;;;;1999.90;999.90;;;;;;;23.35;87.13;95742.16;5029086;28;20210;-67
2021/08/03 05:28:26;;;;;;;1999.90;999.90;;;;;;;23.57;85.53;95751.78;5029009;28;20677;-67
2021/08/03 05:30:53;;;;;;;1999.90;999.90;;;;;;;23.83;81.42;95750.78;5029191;28;20229;-68
2021/08/03 05:33:20;;;;;;;1999.90;999.90;;;;;;;23.81;80.04;95758.38;5029095;28;20206;-68
2021/08/03 05:35:47;;;;;;;1999.90;999.90;;;;;;;23.83;79.18;95759.53;5028844;28;20297;-67
2021/08/03 05:38:15;;;;;;;1999.90;999.90;;;;;;;23.98;79.59;95758.47;5028953;28;20194;-67
2021/08/03 05:40:42;;;;;;;1999.90;999.90;;;;;;;24.08;78.64;95759.63;5029058;28;20701;-68
2021/08/03 05:43:10;;;;;;;1999.90;999.90;;;;;;;24.36;79.78;95764.31;5029440;28;20723;-68
2021/08/03 05:45:37;;;;;;;1999.90;999.90;;;;;;;24.52;79.20;95759.44;5029033;28;20209;-68
2021/08/03 05:48:04;;;;;;;1999.90;999.90;;;;;;;24.44;78.82;95763.22;5028728;28;20202;-68
2021/08/03 05:50:31;;;;;;;1999.90;999.90;;;;;;;24.47;78.42;95756.38;5028539;28;20232;-68
2021/08/03 05:52:58;;;;;;;1999.90;999.90;;;;;;;24.52;78.69;95766.63;5028879;28;20694;-68
2021/08/03 05:55:27;;;;;;;1999.90;999.90;;;;;;;24.73;77.89;95764.03;5028625;28;20598;-68
2021/08/03 05:57:54;;;;;;;1999.90;999.90;;;;;;;24.93;76.98;95757.25;5028405;28;20602;-67
2021/08/03 06:00:21;;;;;;;1999.90;999.90;;;;;;;25.07;75.16;95759.16;5028566;28;20190;-68
2021/08/03 06:02:48;;;;;;;1999.90;999.90;;;;;;;25.06;75.92;95760.28;5028785;28;20205;-68
2021/08/03 06:05:15;;;;;;;1999.90;999.90;;;;;;;25.13;74.46;95750.44;5028468;28;20750;-68
2021/08/03 06:07:44;;;;;;;1999.90;999.90;;;;;;;25.17;73.88;95753.84;5028392;28;20209;-68
2021/08/03 06:10:15;;;;;;;1999.90;999.90;;;;;;;25.22;73.00;95747.38;5028206;28;20218;-68
2021/08/03 06:12:47;;;;;;;1999.90;999.90;;;;;;;25.14;72.87;95751.19;5028373;28;20678;-68
2021/08/03 06:15:16;;;;;;;1999.90;999.90;;;;;;;25.43;72.74;95757.25;5028285;28;20239;-68
2021/08/03 06:17:47;;;;;;;1999.90;999.90;;;;;;;25.47;73.98;95760.66;5028258;28;20198;-68
2021/08/03 06:20:15;;;;;;;1999.90;999.90;;;;;;;25.29;73.53;95763.34;5028527;28;20731;-68
2021/08/03 06:22:42;;;;;;;1999.90;999.90;;;;;;;25.52;71.81;95758.38;5028456;28;20628;-68
2021/08/03 06:25:14;;;;;;;1999.90;999.90;;;;;;;25.78;70.42;95759.13;5028405;28;20579;-67
2021/08/03 06:27:42;;;;;;;1999.90;999.90;;;;;;;26.03;70.85;95763.22;5028077;28;20190;-67
2021/08/03 06:30:12;;;;;;;1999.90;999.90;;;;;;;26.38;70.30;95757.00;5028017;28;20297;-68
2021/08/03 06:32:42;;;;;;;1999.90;999.90;;;;;;;26.37;68.92;95760.81;5028259;28;20198;-68
2021/08/03 06:35:11;;;;;;;1999.90;999.90;;;;;;;26.36;68.51;95759.28;5027919;28;20187;-67
2021/08/03 06:37:39;;;;;;;1999.90;999.90;;;;;;;26.30;70.27;95755.50;5027950;28;20289;-67
2021/08/03 06:40:09;;;;;;;1999.90;999.90;;;;;;;26.27;70.26;95758.97;5028222;28;20202;-68
2021/08/03 06:42:48;;;;;;;1999.90;999.90;;;;;;;26.41;69.43;95761.56;5027897;28;20243;-68
2021/08/03 06:45:20;;;;;;;1999.90;999.90;;;;;;;26.35;70.66;95760.44;5027772;28;20246;-67
2021/08/03 06:47:56;;;;;;;1999.90;999.90;;;;;;;26.44;70.46;95765.38;5027861;28;20692;-66
2021/08/03 06:50:26;;;;;;;1999.90;999.90;;;;;;;26.54;69.91;95765.31;5027705;28;20270;-67
2021/08/03 06:52:54;;;;;;;1999.90;999.90;;;;;;;26.62;67.68;95765.25;5027925;28;20190;-68
2021/08/03 06:55:28;;;;;;;1999.90;999.90;;;;;;;26.73;69.47;95772.06;5027697;28;20199;-68
2021/08/03 06:57:58;;;;;;;1999.90;999.90;;;;;;;26.76;68.14;95773.94;5027375;28;20230;-66
2021/08/03 07:00:31;;;;;;;1999.90;999.90;;;;;;;26.64;69.06;95770.97;5027637;28;20677;-67
2021/08/03 07:02:59;;;;;;;1999.90;999.90;;;;;;;26.83;68.89;95775.81;5027798;28;20463;-68
2021/08/03 07:05:28;;;;;;;1999.90;999.90;;;;;;;27.01;67.79;95776.47;5027474;28;20200;-67
2021/08/03 07:07:58;;;;;;;1999.90;999.90;;;;;;;27.06;67.45;95770.72;5027785;28;20287;-67
2021/08/03 07:10:25;;;;;;;1999.90;999.90;;;;;;;27.07;68.47;95768.81;5027649;28;20230;-67
2021/08/03 07:12:54;;;;;;;1999.90;999.90;;;;;;;27.25;67.22;95775.50;5027335;28;20209;-67
2021/08/03 07:15:22;;;;;;;1999.90;999.90;;;;;;;27.30;66.21;95782.34;5027765;28;20224;-67
2021/08/03 07:17:51;;;;;;;1999.90;999.90;;;;;;;27.38;64.91;95779.25;5027648;28;20197;-68
2021/08/03 07:20:18;;;;;;;1999.90;999.90;;;;;;;27.23;66.61;95783.16;5027574;28;20225;-67
2021/08/03 07:22:47;;;;;;;1999.90;999.90;;;;;;;27.39;64.81;95780.75;5027485;28;20244;-68
2021/08/03 07:25:14;;;;;;;1999.90;999.90;;;;;;;27.52;66.00;95782.97;5027340;28;20206;-68
2021/08/03 07:27:41;;;;;;;1999.90;999.90;;;;;;;27.67;65.62;95781.66;5026840;28;20197;-68
2021/08/03 07:30:10;;;;;;;1999.90;999.90;;;;;;;27.93;61.69;95778.34;5027052;28;20193;-68
2021/08/03 07:32:38;;;;;;;1999.90;999.90;;;;;;;28.25;62.68;95776.09;5027080;28;20289;-67
2021/08/03 07:35:09;;;;;;;1999.90;999.90;;;;;;;28.42;62.11;95773.59;5027430;28;20290;-67
2021/08/03 07:37:36;;;;;;;1999.90;999.90;;;;;;;28.50;61.79;95770.44;5027670;28;20246;-67
2021/08/03 07:40:05;;;;;;;1999.90;999.90;;;;;;;28.51;61.27;95771.94;5026927;28;20306;-67
2021/08/03 07:42:32;;;;;;;1999.90;999.90;;;;;;;28.55;61.94;95769.22;5027216;28;20202;-67
2021/08/03 07:44:59;;;;;;;1999.90;999.90;;;;;;;28.50;62.38;95772.34;5020605;28;20259;-67
2021/08/03 07:47:27;;;;;;;1999.90;999.90;;;;;;;28.55;61.68;95767.31;5018715;28;20209;-68
2021/08/03 07:49:54;;;;;;;1999.90;999.90;;;;;;;28.52;63.58;95773.47;5026752;28;20202;-67
2021/08/03 07:52:22;;;;;;;1999.90;999.90;;;;;;;28.45;62.57;95762.84;5026390;28;20225;-66
2021/08/03 07:54:50;;;;;;;1999.90;999.90;;;;;;;28.48;61.86;95761.31;5025014;28;20205;-67
2021/08/03 07:57:17;;;;;;;1999.90;999.90;;;;;;;28.53;61.68;95758.19;5026711;28;20205;-67
2021/08/03 07:59:44;;;;;;;1999.90;999.90;;;;;;;28.88;60.21;95757.72;5026766;28;20205;-67
2021/08/03 08:02:11;;;;;;;1999.90;999.90;;;;;;;29.14;59.56;95753.50;5026783;28;20201;-68
2021/08/03 08:04:38;;;;;;;1999.90;999.90;;;;;;;29.36;57.84;95753.91;5026939;28;20194;-68
2021/08/03 08:07:05;;;;;;;1999.90;999.90;;;;;;;29.37;58.89;95744.72;5026643;28;20202;-67
2021/08/03 08:09:34;;;;;;;1999.90;999.90;;;;;;;29.57;57.80;95740.16;5026542;28;20217;-68
2021/08/03 08:12:01;;;;;;;1999.90;999.90;;;;;;;29.44;57.28;95747.28;5026647;28;20586;-68
2021/08/03 08:14:30;;;;;;;1999.90;999.90;;;;;;;29.60;57.31;95750.03;5026801;28;20198;-68
2021/08/03 08:16:57;;;;;;;1999.90;999.90;;;;;;;29.44;55.49;95752.66;5026670;28;20253;-68
2021/08/03 08:19:25;;;;;;;1999.90;999.90;;;;;;;29.67;54.75;95747.25;5026402;28;20690;-68
2021/08/03 08:21:52;;;;;;;1999.90;999.90;;;;;;;29.92;54.19;95746.81;5026372;28;20201;-68
2021/08/03 08:24:19;;;;;;;1999.90;999.90;;;;;;;29.98;52.59;95741.72;5026316;28;20623;-68
2021/08/03 08:26:48;;;;;;;1999.90;999.90;;;;;;;30.17;52.52;95740.97;5026659;28;20201;-68
2021/08/03 08:29:17;;;;;;;1999.90;999.90;;;;;;;30.36;52.82;95748.22;5026554;28;20198;-68
2021/08/03 08:31:44;;;;;;;1999.90;999.90;;;;;;;30.47;51.99;95745.34;5026543;28;20257;-67
2021/08/03 08:34:12;;;;;;;1999.90;999.90;;;;;;;30.16;51.53;95747.50;5026601;28;20206;-67
2021/08/03 08:36:40;;;;;;;1999.90;999.90;;;;;;;30.00;55.97;95742.06;5026110;28;20201;-67
2021/08/03 08:39:08;;;;;;;1999.90;999.90;;;;;;;29.87;54.83;95747.25;5025995;28;20202;-67
2021/08/03 08:41:37;;;;;;;1999.90;999.90;;;;;;;30.14;53.17;95733.72;5025722;28;20564;-67
2021/08/03 08:44:06;;;;;;;1999.90;999.90;;;;;;;30.49;52.14;95735.69;5025996;28;20205;-67
2021/08/03 08:46:34;;;;;;;1999.90;999.90;;;;;;;30.58;51.11;95732.47;5026106;28;20198;-68
2021/08/03 08:49:03;;;;;;;1999.90;999.90;;;;;;;30.46;51.63;95736.53;5026108;28;20240;-68
2021/08/03 08:51:30;;;;;;;1999.90;999.90;;;;;;;30.41;51.71;95733.56;5026292;28;20244;-68
2021/08/03 08:53:58;;;;;;;1999.90;999.90;;;;;;;30.41;52.56;95737.00;5026072;28;20251;-68
2021/08/03 08:56:25;;;;;;;1999.90;999.90;;;;;;;30.78;53.53;95728.53;5026217;28;20197;-68
2021/08/03 08:58:52;;;;;;;1999.90;999.90;;;;;;;31.08;50.88;95735.53;5025634;28;20230;-69
2021/08/03 09:01:21;;;;;;;1999.90;999.90;;;;;;;31.18;50.62;95731.81;5026107;28;20200;-68
2021/08/03 09:03:48;;;;;;;1999.90;999.90;;;;;;;31.21;48.67;95732.91;5026044;28;20198;-69
2021/08/03 09:06:20;;;;;;;1999.90;999.90;;;;;;;31.25;47.07;95730.91;5025809;28;20198;-68
2021/08/03 09:08:48;;;;;;;1999.90;999.90;;;;;;;31.48;48.02;95733.38;5025846;28;20190;-69
2021/08/03 09:11:16;;;;;;;1999.90;999.90;;;;;;;31.79;46.73;95725.69;5025945;28;20651;-68
2021/08/03 09:13:55;;;;;;;1999.90;999.90;;;;;;;31.95;47.36;95735.63;5026033;28;20205;-68
2021/08/03 09:16:25;;;;;;;1999.90;999.90;;;;;;;31.92;45.06;95725.72;5025870;28;20695;-69
2021/08/03 09:18:54;;;;;;;1999.90;999.90;;;;;;;31.92;43.55;95728.41;5025585;28;20194;-69
2021/08/03 09:21:24;;;;;;;1999.90;999.90;;;;;;;31.88;43.35;95720.44;5025554;28;20202;-69
2021/08/03 09:23:53;;;;;;;1999.90;999.90;;;;;;;31.71;46.49;95723.63;5025753;28;20565;-68
2021/08/03 09:26:22;;;;;;;1999.90;999.90;;;;;;;31.60;43.12;95711.22;5025855;28;20242;-69
2021/08/03 09:29:01;;;;;;;1999.90;999.90;;;;;;;31.71;42.08;95719.00;5025713;28;20765;-69
2021/08/03 09:31:31;;;;;;;1999.90;999.90;;;;;;;31.89;41.13;95713.13;5025676;28;20214;-67
2021/08/03 09:33:59;;;;;;;1999.90;999.90;;;;;;;31.82;38.63;95714.09;5025900;28;20210;-69
2021/08/03 09:36:47;;;;;;;1999.90;999.90;;;;;;;31.82;34.39;95713.34;5025377;28;20584;-68
2021/08/03 09:39:40;;;;;;;1999.90;999.90;;;;;;;32.15;35.43;95700.53;5025606;28;20197;-69
2021/08/03 09:42:11;;;;;;;1999.90;999.90;;;;;;;32.24;34.95;95704.06;5025424;28;20188;-69
2021/08/03 09:44:46;;;;;;;1999.90;999.90;;;;;;;32.64;35.92;95701.00;5025744;28;20190;-69
2021/08/03 09:47:15;;;;;;;1999.90;999.90;;;;;;;32.48;32.94;95707.97;5025269;28;20202;-69
2021/08/03 09:49:48;;;;;;;1999.90;999.90;;;;;;;32.65;33.05;95699.81;5025048;28;20208;-69
2021/08/03 09:52:17;;;;;;;1999.90;999.90;;;;;;;32.53;33.17;95695.91;5027571;28;20218;-69
2021/08/03 09:54:44;;;;;;;1999.90;999.90;;;;;;;32.58;33.33;95697.34;5028551;28;20202;-70
2021/08/03 09:57:22;;;;;;;1999.90;999.90;;;;;;;32.55;38.93;95692.78;5028337;28;20661;-68
2021/08/03 09:59:50;;;;;;;1999.90;999.90;;;;;;;32.56;38.51;95695.06;5028780;28;20202;-69
2021/08/03 10:02:21;;;;;;;1999.90;999.90;;;;;;;32.26;37.32;95693.66;5028685;28;20285;-69
2021/08/03 10:04:49;;;;;;;1999.90;999.90;;;;;;;32.25;36.32;95692.13;5028719;28;20204;-68
2021/08/03 10:07:17;;;;;;;1999.90;999.90;;;;;;;32.63;36.89;95689.44;5028723;28;20657;-70
2021/08/03 10:09:45;;;;;;;1999.90;999.90;;;;;;;32.60;38.58;95693.00;5028560;28;20205;-68
2021/08/03 10:12:13;;;;;;;1999.90;999.90;;;;;;;32.69;35.82;95687.75;5028389;28;20325;-67
2021/08/03 10:14:40;;;;;;;1999.90;999.90;;;;;;;32.44;33.41;95685.03;5028278;28;20289;-72
2021/08/03 10:17:10;;;;;;;1999.90;999.90;;;;;;;32.56;34.91;95678.91;5028114;28;20206;-66
2021/08/03 10:19:39;;;;;;;1999.90;999.90;;;;;;;32.50;36.93;95677.94;5028249;28;20201;-69
2021/08/03 10:22:13;;;;;;;1999.90;999.90;;;;;;;32.72;36.90;95676.13;5028195;28;20258;-68
2021/08/03 10:24:43;;;;;;;1999.90;999.90;;;;;;;32.79;31.16;95675.88;5028271;28;20245;-68
2021/08/03 10:27:12;;;;;;;1999.90;999.90;;;;;;;32.89;33.13;95674.03;5028245;28;20194;-69
2021/08/03 10:29:47;;;;;;;1999.90;999.90;;;;;;;33.09;33.47;95673.78;5028054;28;20217;-68
2021/08/03 10:32:39;;;;;;;1999.90;999.90;;;;;;;32.99;32.73;95667.56;5027795;28;20638;-68
2021/08/03 10:35:13;;;;;;;1999.90;999.90;;;;;;;32.82;30.77;95674.28;5027726;28;20197;-68
2021/08/03 10:38:08;;;;;;;1999.90;999.90;;;;;;;32.88;32.58;95672.53;5027994;28;20197;-68
2021/08/03 10:41:16;;;;;;;1999.90;999.90;;;;;;;32.89;31.45;95671.34;5027886;28;20255;-69
2021/08/03 10:43:54;;;;;;;1999.90;999.90;;;;;;;33.00;30.83;95673.69;5027652;28;20202;-68
2021/08/03 10:46:38;;;;;;;1999.90;999.90;;;;;;;32.74;30.29;95664.91;5027854;28;20270;-69
2021/08/03 10:49:06;;;;;;;1999.90;999.90;;;;;;;32.88;34.14;95667.16;5027962;28;20198;-68
2021/08/03 10:51:43;;;;;;;1999.90;999.90;;;;;;;33.02;33.31;95666.69;5027498;28;20208;-68
2021/08/03 10:54:12;;;;;;;1999.90;999.90;;;;;;;33.33;31.23;95664.13;5027651;28;20197;-69
2021/08/03 10:57:19;;;;;;;1999.90;999.90;;;;;;;33.38;33.20;95663.56;5027880;28;20673;-68
2021/08/03 10:59:58;;;;;;;1999.90;999.90;;;;;;;33.54;29.29;95654.56;5027620;28;20229;-70
2021/08/03 11:02:49;;;;;;;1999.90;999.90;;;;;;;33.59;31.48;95662.09;5027142;28;20716;-68
2021/08/03 11:05:33;;;;;;;1999.90;999.90;;;;;;;33.60;31.85;95661.66;5027621;28;20194;-69